createdAt,value
2019-04-07T00:03:12.105Z,34.50
2019-04-07T00:08:05.726Z,34.77
2019-04-07T00:12:59.557Z,33.37
2019-04-07T00:17:53.181Z,34.27
2019-04-07T00:22:46.456Z,36.50
2019-04-07T00:27:39.659Z,39.37
2019-04-07T00:32:32.857Z,33.40
2019-04-07T00:37:26.230Z,35.37
2019-04-07T00:42:19.592Z,38.17
2019-04-07T00:47:13.046Z,30.50
2019-04-07T00:52:07.102Z,32.17
2019-04-07T00:57:00.986Z,33.20
2019-04-07T01:01:54.599Z,35.17
2019-04-07T01:06:48.400Z,33.47
2019-04-07T01:11:42.177Z,31.83
2019-04-07T01:16:36.249Z,35.00
2019-04-07T01:21:30.331Z,37.43
2019-04-07T01:26:24.133Z,32.67
2019-04-07T01:31:17.652Z,34.97
2019-04-07T01:36:11.245Z,30.10
2019-04-07T01:41:15.255Z,28.57
2019-04-07T01:46:21.728Z,27.90
2019-04-07T01:51:36.402Z,29.70
2019-04-07T01:56:54.836Z,34.63
2019-04-07T02:02:02.050Z,35.17
2019-04-07T02:07:27.262Z,29.90
2019-04-07T02:12:29.057Z,33.93
2019-04-07T02:17:42.748Z,29.40
2019-04-07T02:22:47.185Z,30.13
2019-04-07T02:28:01.068Z,32.80
2019-04-07T02:33:33.100Z,34.33
2019-04-07T02:38:33.474Z,31.87
2019-04-07T02:43:55.656Z,34.63
2019-04-07T02:49:04.424Z,29.43
2019-04-07T02:54:20.697Z,32.03
2019-04-07T02:59:27.260Z,28.30
2019-04-07T03:04:44.262Z,30.73
2019-04-07T03:10:02.963Z,28.20
2019-04-07T03:15:17.176Z,30.60
2019-04-07T03:20:33.393Z,28.63
2019-04-07T03:25:37.535Z,28.03
2019-04-07T03:30:54.227Z,29.47
2019-04-07T03:36:10.367Z,31.57
2019-04-07T03:41:20.125Z,30.63
2019-04-07T03:46:21.624Z,27.40
2019-04-07T03:51:40.730Z,28.53
2019-04-07T03:56:44.199Z,25.73
2019-04-07T04:01:49.681Z,25.73
2019-04-07T04:07:17.795Z,25.83
2019-04-07T04:12:15.026Z,27.43
2019-04-07T04:17:09.550Z,25.73
2019-04-07T04:22:04.080Z,26.13
2019-04-07T04:26:57.802Z,28.63
2019-04-07T04:31:52.594Z,24.33
2019-04-07T04:36:46.566Z,27.47
2019-04-07T04:41:40.482Z,26.40
2019-04-07T04:46:34.446Z,25.47
2019-04-07T04:51:29.396Z,28.63
2019-04-07T04:56:24.273Z,25.43
2019-04-07T05:01:18.631Z,29.10
2019-04-07T05:06:13.282Z,24.70
2019-04-07T05:11:06.915Z,27.30
2019-04-07T05:16:00.566Z,27.27
2019-04-07T05:20:54.293Z,26.57
2019-04-07T05:25:48.151Z,26.80
2019-04-07T05:30:41.746Z,26.60
2019-04-07T05:35:36.317Z,27.70
2019-04-07T05:40:29.994Z,26.10
2019-04-07T05:45:23.795Z,24.40
2019-04-07T05:50:17.186Z,25.57
2019-04-07T05:55:10.900Z,24.93
2019-04-07T06:00:06.765Z,25.37
2019-04-07T06:05:00.403Z,26.33
2019-04-07T06:09:55.699Z,24.87
2019-04-07T06:14:49.762Z,23.07
2019-04-07T06:19:43.589Z,25.33
2019-04-07T06:24:36.741Z,25.07
2019-04-07T06:29:31.147Z,24.23
2019-04-07T06:34:24.969Z,22.67
2019-04-07T06:39:19.924Z,25.73
2019-04-07T06:44:19.379Z,24.73
2019-04-07T06:49:28.426Z,24.90
2019-04-07T06:55:00.220Z,24.43
2019-04-07T07:00:17.501Z,24.20
2019-04-07T07:05:41.162Z,26.07
2019-04-07T07:10:45.647Z,25.93
2019-04-07T07:15:58.629Z,23.80
2019-04-07T07:21:10.219Z,25.27
2019-04-07T07:26:04.358Z,23.33
2019-04-07T07:30:57.645Z,23.37
2019-04-07T07:35:50.869Z,22.73
2019-04-07T07:40:44.986Z,21.47
2019-04-07T07:45:42.962Z,22.13
2019-04-07T07:50:34.716Z,22.37
2019-04-07T07:55:33.898Z,23.47
2019-04-07T08:00:24.559Z,22.23
2019-04-07T08:05:18.181Z,22.13
2019-04-07T08:10:11.696Z,22.20
2019-04-07T08:15:05.946Z,20.77
2019-04-07T08:19:59.826Z,21.57
2019-04-07T08:24:53.511Z,20.63
2019-04-07T08:29:47.424Z,18.57
2019-04-07T08:34:41.478Z,17.67
2019-04-07T08:39:36.230Z,18.60
2019-04-07T08:44:30.562Z,18.97
2019-04-07T08:49:25.537Z,19.30
2019-04-07T08:54:18.979Z,19.10
2019-04-07T08:59:15.815Z,17.57
2019-04-07T09:04:07.690Z,18.80
2019-04-07T09:09:01.631Z,17.10
2019-04-07T09:13:55.910Z,16.70
2019-04-07T09:19:04.392Z,16.50
2019-04-07T09:24:17.535Z,15.67
2019-04-07T09:29:31.326Z,15.03
2019-04-07T09:34:57.183Z,15.73
2019-04-07T09:40:01.166Z,16.07
2019-04-07T09:45:27.650Z,16.53
2019-04-07T09:50:58.300Z,16.57
2019-04-07T09:56:27.240Z,15.70
2019-04-07T10:01:29.571Z,15.10
2019-04-07T10:06:34.910Z,17.00
2019-04-07T10:11:47.664Z,13.83
2019-04-07T10:16:53.247Z,13.63
2019-04-07T10:22:15.261Z,12.47
2019-04-07T10:27:27.277Z,11.10
2019-04-07T10:32:33.966Z,10.77
2019-04-07T10:38:00.717Z,9.20
2019-04-07T10:43:24.008Z,10.53
2019-04-07T10:48:24.895Z,6.37
2019-04-07T10:53:39.359Z,6.33
2019-04-07T10:58:44.562Z,6.43
2019-04-07T11:03:57.879Z,7.33
2019-04-07T11:09:09.619Z,6.90
2019-04-07T11:14:20.263Z,5.73
2019-04-07T11:19:33.351Z,6.93
2019-04-07T11:24:44.811Z,5.60
2019-04-07T11:29:42.605Z,5.50
2019-04-07T11:34:42.024Z,4.73
2019-04-07T11:39:57.790Z,4.50
2019-04-07T11:45:09.254Z,5.07
2019-04-07T11:50:15.203Z,4.77
2019-04-07T11:55:46.496Z,5.37
2019-04-07T12:00:58.155Z,5.30
2019-04-07T12:06:13.600Z,5.37
2019-04-07T12:11:24.590Z,5.27
2019-04-07T12:16:29.301Z,6.20
2019-04-07T12:21:27.782Z,4.93
2019-04-07T12:27:01.084Z,4.17
2019-04-07T12:32:18.134Z,5.10
2019-04-07T12:37:30.080Z,4.20
2019-04-07T12:42:52.342Z,5.10
2019-04-07T12:48:23.203Z,4.10
2019-04-07T12:53:34.315Z,4.17
2019-04-07T12:58:50.608Z,5.17
2019-04-07T13:03:54.703Z,3.80
2019-04-07T13:09:11.391Z,4.57
2019-04-07T13:14:24.533Z,4.17
2019-04-07T13:19:37.454Z,4.40
2019-04-07T13:24:57.013Z,4.17
2019-04-07T13:30:00.998Z,4.77
2019-04-07T13:35:16.633Z,4.03
2019-04-07T13:40:26.935Z,5.13
2019-04-07T13:45:49.404Z,3.67
2019-04-07T13:51:08.106Z,7.40
2019-04-07T13:56:36.496Z,4.50
2019-04-07T14:01:48.105Z,4.73
2019-04-07T14:07:01.306Z,3.87
2019-04-07T14:12:11.214Z,4.20
2019-04-07T14:17:30.844Z,4.23
2019-04-07T14:22:35.180Z,4.60
2019-04-07T14:27:35.166Z,4.57
2019-04-07T14:32:42.774Z,4.63
2019-04-07T14:38:01.482Z,4.00
2019-04-07T14:43:05.101Z,4.03
2019-04-07T14:48:24.987Z,4.10
2019-04-07T14:53:53.039Z,4.47
2019-04-07T14:59:11.776Z,5.57
2019-04-07T15:04:06.347Z,4.90
2019-04-07T15:09:23.984Z,4.60
2019-04-07T15:14:18.009Z,5.03
2019-04-07T15:19:11.646Z,6.83
2019-04-07T15:24:07.129Z,6.43
2019-04-07T15:29:05.349Z,5.23
2019-04-07T15:33:56.406Z,5.10
2019-04-07T15:38:49.771Z,5.17
2019-04-07T15:43:43.990Z,4.80
2019-04-07T15:48:37.672Z,8.17
2019-04-07T15:53:31.941Z,5.70
2019-04-07T15:58:27.648Z,5.93
2019-04-07T16:03:21.161Z,5.50
2019-04-07T16:08:14.298Z,5.73
2019-04-07T16:13:07.611Z,6.40
2019-04-07T16:18:03.416Z,5.90
2019-04-07T16:22:55.694Z,6.93
2019-04-07T16:27:49.044Z,7.13
2019-04-07T16:32:42.183Z,8.30
2019-04-07T16:37:35.428Z,6.13
2019-04-07T16:42:28.711Z,6.47
2019-04-07T16:47:24.907Z,9.40
2019-04-07T16:52:16.941Z,7.13
2019-04-07T16:57:10.534Z,6.47
2019-04-07T17:02:06.207Z,7.43
2019-04-07T17:07:04.119Z,7.73
2019-04-07T17:11:54.723Z,7.37
2019-04-07T17:16:48.615Z,8.23
2019-04-07T17:21:42.840Z,8.13
2019-04-07T17:26:39.137Z,8.73
2019-04-07T17:31:32.637Z,9.57
2019-04-07T17:36:26.544Z,9.10
2019-04-07T17:41:20.179Z,8.13
2019-04-07T17:46:32.494Z,9.03
2019-04-07T17:51:57.537Z,11.17
2019-04-07T17:57:18.957Z,10.23
2019-04-07T18:02:44.128Z,10.13
2019-04-07T18:08:01.712Z,10.80
2019-04-07T18:13:15.790Z,12.40
2019-04-07T18:18:24.060Z,10.53
2019-04-07T18:23:36.591Z,11.23
2019-04-07T18:28:34.038Z,11.90
2019-04-07T18:33:52.596Z,11.57
2019-04-07T18:39:04.555Z,10.17
2019-04-07T18:44:20.424Z,10.47
2019-04-07T18:49:31.433Z,12.57
2019-04-07T18:54:38.896Z,17.37
2019-04-07T18:59:55.564Z,11.23
2019-04-07T19:05:00.198Z,10.17
2019-04-07T19:10:21.358Z,13.03
2019-04-07T19:15:27.617Z,11.70
2019-04-07T19:20:49.446Z,10.90
2019-04-07T19:25:51.187Z,14.83
2019-04-07T19:31:19.104Z,12.50
2019-04-07T19:36:27.437Z,14.27
2019-04-07T19:41:40.532Z,13.13
2019-04-07T19:46:48.460Z,13.77
2019-04-07T19:51:49.815Z,13.63
2019-04-07T19:56:52.784Z,15.33
2019-04-07T20:02:24.104Z,14.33
2019-04-07T20:07:46.181Z,13.83
2019-04-07T20:12:48.511Z,14.37
2019-04-07T20:18:07.399Z,13.10
2019-04-07T20:23:08.537Z,14.50
2019-04-07T20:28:13.437Z,15.63
2019-04-07T20:33:18.415Z,18.33
2019-04-07T20:38:30.119Z,14.97
2019-04-07T20:43:29.185Z,14.70
2019-04-07T20:48:54.030Z,15.13
2019-04-07T20:54:03.646Z,14.50
2019-04-07T20:59:33.229Z,18.67
2019-04-07T21:04:49.890Z,17.00
2019-04-07T21:09:50.684Z,15.27
2019-04-07T21:15:20.833Z,17.00
2019-04-07T21:20:57.501Z,15.90
2019-04-07T21:26:15.963Z,15.53
2019-04-07T21:31:17.862Z,16.20
2019-04-07T21:36:48.437Z,20.37
2019-04-07T21:42:03.952Z,16.73
2019-04-07T21:47:14.014Z,15.97
2019-04-07T21:52:24.595Z,17.83
2019-04-07T21:57:37.437Z,16.37
2019-04-07T22:03:05.556Z,17.03
2019-04-07T22:08:08.043Z,16.20
2019-04-07T22:13:03.347Z,16.63
2019-04-07T22:17:54.213Z,16.17
2019-04-07T22:22:47.451Z,16.07
2019-04-07T22:27:41.082Z,18.03
2019-04-07T22:32:35.233Z,15.77
2019-04-07T22:37:28.944Z,18.63
2019-04-07T22:42:22.470Z,15.97
2019-04-07T22:47:16.742Z,17.83
2019-04-07T22:52:10.617Z,16.47
2019-04-07T22:57:06.145Z,16.40
2019-04-07T23:01:59.901Z,17.30
2019-04-07T23:06:53.499Z,16.13
2019-04-07T23:11:48.002Z,16.73
2019-04-07T23:16:42.273Z,16.83
2019-04-07T23:21:35.666Z,16.00
2019-04-07T23:26:29.884Z,16.40
2019-04-07T23:31:23.846Z,17.80
2019-04-07T23:36:17.688Z,16.40
2019-04-07T23:41:11.696Z,15.70
2019-04-07T23:46:05.134Z,15.10
2019-04-07T23:50:58.389Z,15.83
2019-04-07T23:55:52.130Z,15.83
